Time,TemperatureF,DewpointF,PressureIn,WindDirection,WindDirectionDegrees,WindSpeedMPH,WindSpeedGustMPH,Humidity,HourlyPrecipIn,Conditions,Clouds,dailyrainin,SoftwareType,DateUTC
2013-02-09 00:00:00,42.9,27.0,29.95,ENE,68,1.0,7.0,53,0.00,,---,0.00,VWS V14.01,2013-02-09 05:00:00,
2013-02-09 00:30:00,42.3,27.3,29.96,NE,45,1.0,6.0,55,0.00,,---,0.00,VWS V14.01,2013-02-09 05:30:00,
2013-02-09 01:00:00,41.6,27.1,29.96,ENE,68,0.0,6.0,56,0.00,,---,0.00,VWS V14.01,2013-02-09 06:00:00,
2013-02-09 01:30:00,40.9,27.3,29.96,NNE,22,0.0,5.0,58,0.00,,---,0.00,VWS V14.01,2013-02-09 06:30:00,
2013-02-09 02:00:00,40.2,27.0,29.96,ENE,68,0.0,10.0,59,0.00,,---,0.00,VWS V14.01,2013-02-09 07:00:00,
2013-02-09 02:30:00,39.3,27.0,29.98,ENE,68,0.0,9.0,61,0.00,,---,0.00,VWS V14.01,2013-02-09 07:30:00,
2013-02-09 03:00:00,38.0,26.5,29.99,ENE,68,0.0,0.0,63,0.00,,---,0.00,VWS V14.01,2013-02-09 08:00:00,
2013-02-09 03:30:00,36.9,26.2,29.99,ENE,68,0.0,5.0,65,0.00,,---,0.00,VWS V14.01,2013-02-09 08:30:00,
2013-02-09 04:00:00,37.5,25.3,29.98,ENE,68,0.0,3.0,61,0.00,,---,0.00,VWS V14.01,2013-02-09 09:00:00,
2013-02-09 04:30:00,37.3,24.3,29.99,NE,45,1.0,7.0,59,0.00,,---,0.00,VWS V14.01,2013-02-09 09:30:00,
2013-02-09 05:00:00,36.6,24.0,30.01,NE,45,0.0,5.0,60,0.00,,---,0.00,VWS V14.01,2013-02-09 10:00:00,
2013-02-09 05:30:00,35.9,23.4,30.03,NE,45,0.0,0.0,60,0.00,,---,0.00,VWS V14.01,2013-02-09 10:30:00,
2013-02-09 06:00:00,35.5,23.0,30.04,NE,45,0.0,2.0,60,0.00,,---,0.00,VWS V14.01,2013-02-09 11:00:00,
2013-02-09 06:30:00,34.4,23.9,30.06,NE,45,0.0,0.0,65,0.00,,---,0.00,VWS V14.01,2013-02-09 11:30:00,
2013-02-09 07:00:00,33.2,23.1,30.08,NE,45,0.0,0.0,66,0.00,,---,0.00,VWS V14.01,2013-02-09 12:00:00,
2013-02-09 07:30:00,32.4,23.4,30.10,NE,45,0.0,0.0,69,0.00,,---,0.00,VWS V14.01,2013-02-09 12:30:00,
2013-02-09 08:00:00,31.0,23.7,30.12,NE,45,0.0,0.0,74,0.00,,---,0.00,VWS V14.01,2013-02-09 13:00:00,
2013-02-09 08:30:00,31.9,24.6,30.14,NE,45,0.0,3.0,74,0.00,,---,0.00,VWS V14.01,2013-02-09 13:30:00,
2013-02-09 09:00:00,36.0,25.0,30.16,NE,45,0.0,0.0,64,0.00,,---,0.00,VWS V14.01,2013-02-09 14:00:00,
2013-02-09 09:30:00,38.6,23.8,30.17,NE,45,0.0,0.0,55,0.00,,---,0.00,VWS V14.01,2013-02-09 14:30:00,
2013-02-09 10:00:00,40.2,22.1,30.17,NE,45,0.0,0.0,48,0.00,,---,0.00,VWS V14.01,2013-02-09 15:00:00,
2013-02-09 10:30:00,42.1,20.1,30.18,NE,45,0.0,0.0,41,0.00,,---,0.00,VWS V14.01,2013-02-09 15:30:00,
2013-02-09 11:00:00,43.1,18.0,30.18,NE,45,0.0,0.0,36,0.00,,---,0.00,VWS V14.01,2013-02-09 16:00:00,
2013-02-09 11:30:00,44.2,18.3,30.20,NE,45,0.0,0.0,35,0.00,,---,0.00,VWS V14.01,2013-02-09 16:30:00,
2013-02-09 12:00:00,46.0,18.5,30.20,NE,45,0.0,0.0,33,0.00,,---,0.00,VWS V14.01,2013-02-09 17:00:00,
2013-02-09 12:30:00,46.7,17.7,30.20,NE,45,0.0,0.0,31,0.00,,---,0.00,VWS V14.01,2013-02-09 17:30:00,
2013-02-09 13:00:00,48.9,17.2,30.19,NE,45,0.0,0.0,28,0.00,,---,0.00,VWS V14.01,2013-02-09 18:00:00,
2013-02-09 13:30:00,49.8,16.3,30.19,NE,45,0.0,0.0,26,0.00,,---,0.00,VWS V14.01,2013-02-09 18:30:00,
2013-02-09 14:00:00,50.2,17.5,30.18,NE,45,0.0,0.0,27,0.00,,---,0.00,VWS V14.01,2013-02-09 19:00:00,
2013-02-09 14:30:00,51.0,17.3,30.18,NE,45,0.0,0.0,26,0.00,,---,0.00,VWS V14.01,2013-02-09 19:30:00,
2013-02-09 15:00:00,52.3,15.6,30.17,NE,45,0.0,0.0,23,0.00,,---,0.00,VWS V14.01,2013-02-09 20:00:00,
2013-02-09 15:30:00,53.5,16.6,30.17,NE,45,0.0,0.0,23,0.00,,---,0.00,VWS V14.01,2013-02-09 20:30:00,
2013-02-09 16:00:00,52.5,15.8,30.17,NE,45,0.0,0.0,23,0.00,,---,0.00,VWS V14.01,2013-02-09 21:00:00,
2013-02-09 16:30:00,52.9,15.1,30.18,NE,45,0.0,0.0,22,0.00,,---,0.00,VWS V14.01,2013-02-09 21:30:00,
2013-02-09 17:00:00,52.8,15.0,30.18,NE,45,0.0,0.0,22,0.00,,---,0.00,VWS V14.01,2013-02-09 22:00:00,
2013-02-09 17:30:00,52.6,15.9,30.18,NE,45,0.0,0.0,23,0.00,,---,0.00,VWS V14.01,2013-02-09 22:30:00,
2013-02-09 18:00:00,51.4,15.8,30.20,NE,45,0.0,0.0,24,0.00,,---,0.00,VWS V14.01,2013-02-09 23:00:00,
2013-02-09 18:30:00,49.8,17.2,30.21,NE,45,0.0,0.0,27,0.00,,---,0.00,VWS V14.01,2013-02-09 23:30:00,
2013-02-09 19:00:00,47.4,18.3,30.22,NE,45,0.0,0.0,31,0.00,,---,0.00,VWS V14.01,2013-02-10 00:00:00,
2013-02-09 19:30:00,43.6,20.9,30.22,NE,45,0.0,0.0,40,0.00,,---,0.00,VWS V14.01,2013-02-10 00:30:00,
2013-02-09 20:00:00,41.2,22.5,30.24,NE,45,0.0,0.0,47,0.00,,---,0.00,VWS V14.01,2013-02-10 01:00:00,
2013-02-09 20:30:00,39.1,22.5,30.25,NE,45,0.0,0.0,51,0.00,,---,0.00,VWS V14.01,2013-02-10 01:30:00,
2013-02-09 21:00:00,37.6,22.5,30.25,NE,45,0.0,0.0,54,0.00,,---,0.00,VWS V14.01,2013-02-10 02:00:00,
2013-02-09 21:30:00,36.8,19.9,30.26,NE,45,0.0,0.0,50,0.00,,---,0.00,VWS V14.01,2013-02-10 02:30:00,
2013-02-09 22:00:00,36.5,22.3,30.27,NE,45,0.0,0.0,56,0.00,,---,0.00,VWS V14.01,2013-02-10 03:00:00,
2013-02-09 22:30:00,35.3,21.6,30.28,NE,45,0.0,0.0,57,0.00,,---,0.00,VWS V14.01,2013-02-10 03:30:00,
2013-02-09 23:00:00,34.0,21.6,30.28,NE,45,0.0,0.0,60,0.00,,---,0.00,VWS V14.01,2013-02-10 04:00:00,
2013-02-09 23:30:00,32.8,21.6,30.28,NE,45,0.0,0.0,63,0.00,,---,0.00,VWS V14.01,2013-02-10 04:30:00,